Wigton, United Kingdom
Current Conditions -  °F | °C
As of 3:50 PM on Saturday 22 Nov 2014 (Local Time) from EGOM Reporting Station
Broken Clouds Broken Clouds  
Wind Chill: 45°   Ceiling: 4300
Heat Index: 48°   Visibility: 6mi
Dew Point: 46°   Wind: 8mph
Humidity: 93%   Direction: 220°SW
Pressure: 29.8"   Gusts: NA
Location:  54.82°N, 3.16°W
Report Text: EGOM 221550Z AUTO 22007KT 9999 SCT014/// BKN043/// 09/08 Q1009
Loading
Personal Weather Stations






























Interactive Weather Map New forecast layout! Learn more

10-Day Weather Forecast

Advertisements
Track Severe Weather on mobile